sensor_id;sensor_type;location;lat;lon;timestamp;pressure;altitude;pressure_sealevel;temperature;humidity
76086;BME280;64791;0.000;0.000;2023-12-22T00:02:07;92333.25;;;6.58;51.89
76086;BME280;64791;0.000;0.000;2023-12-22T00:04:32;92319.72;;;6.60;51.90
76086;BME280;64791;0.000;0.000;2023-12-22T00:06:58;92312.78;;;6.59;51.69
76086;BME280;64791;0.000;0.000;2023-12-22T00:09:24;92294.34;;;6.59;52.11
76086;BME280;64791;0.000;0.000;2023-12-22T00:11:49;92297.25;;;6.61;52.07
76086;BME280;64791;0.000;0.000;2023-12-22T00:14:15;92304.91;;;6.63;51.77
76086;BME280;64791;0.000;0.000;2023-12-22T00:16:41;92309.81;;;6.64;51.85
76086;BME280;64791;0.000;0.000;2023-12-22T00:19:06;92301.59;;;6.64;51.83
76086;BME280;64791;0.000;0.000;2023-12-22T00:21:32;92277.66;;;6.65;51.68
76086;BME280;64791;0.000;0.000;2023-12-22T00:23:58;92282.75;;;6.68;52.21
76086;BME280;64791;0.000;0.000;2023-12-22T00:26:24;92282.94;;;6.70;51.85
76086;BME280;64791;0.000;0.000;2023-12-22T00:28:50;92269.41;;;6.72;52.30
76086;BME280;64791;0.000;0.000;2023-12-22T00:31:15;92277.78;;;6.74;52.16
76086;BME280;64791;0.000;0.000;2023-12-22T00:33:41;92282.13;;;6.78;52.02
76086;BME280;64791;0.000;0.000;2023-12-22T00:36:07;92270.59;;;6.79;51.88
76086;BME280;64791;0.000;0.000;2023-12-22T00:38:33;92266.56;;;6.80;52.28
76086;BME280;64791;0.000;0.000;2023-12-22T00:40:59;92264.56;;;6.81;51.97
76086;BME280;64791;0.000;0.000;2023-12-22T00:43:25;92257.97;;;6.84;52.07
76086;BME280;64791;0.000;0.000;2023-12-22T00:45:50;92240.22;;;6.85;52.47
76086;BME280;64791;0.000;0.000;2023-12-22T00:48:16;92261.56;;;6.86;52.26
76086;BME280;64791;0.000;0.000;2023-12-22T00:50:42;92245.88;;;6.87;52.08
76086;BME280;64791;0.000;0.000;2023-12-22T00:53:07;92239.09;;;6.88;52.00
76086;BME280;64791;0.000;0.000;2023-12-22T00:55:33;92231.03;;;6.90;52.25
76086;BME280;64791;0.000;0.000;2023-12-22T00:57:58;92215.34;;;6.90;51.94
76086;BME280;64791;0.000;0.000;2023-12-22T01:00:24;92211.28;;;6.91;51.86
76086;BME280;64791;0.000;0.000;2023-12-22T01:02:49;92205.41;;;6.95;51.93
76086;BME280;64791;0.000;0.000;2023-12-22T01:05:15;92191.69;;;6.95;52.30
76086;BME280;64791;0.000;0.000;2023-12-22T01:07:41;92195.31;;;6.97;52.22
76086;BME280;64791;0.000;0.000;2023-12-22T01:10:07;92202.44;;;7.00;52.38
76086;BME280;64791;0.000;0.000;2023-12-22T01:12:32;92216.13;;;7.00;51.95
76086;BME280;64791;0.000;0.000;2023-12-22T01:14:58;92216.28;;;7.02;52.01
76086;BME280;64791;0.000;0.000;2023-12-22T01:17:24;92217.91;;;7.05;52.13
76086;BME280;64791;0.000;0.000;2023-12-22T01:19:50;92231.78;;;7.07;52.06
76086;BME280;64791;0.000;0.000;2023-12-22T01:22:16;92230.47;;;7.08;52.54
76086;BME280;64791;0.000;0.000;2023-12-22T01:24:42;92226.44;;;7.09;52.08
76086;BME280;64791;0.000;0.000;2023-12-22T01:27:09;92227.88;;;7.10;52.19
76086;BME280;64791;0.000;0.000;2023-12-22T01:29:35;92226.75;;;7.13;52.20
76086;BME280;64791;0.000;0.000;2023-12-22T01:32:01;92221.44;;;7.15;52.51
76086;BME280;64791;0.000;0.000;2023-12-22T01:34:27;92214.34;;;7.12;51.93
76086;BME280;64791;0.000;0.000;2023-12-22T01:36:53;92208.78;;;7.03;52.51
76086;BME280;64791;0.000;0.000;2023-12-22T01:39:19;92201.06;;;6.92;52.89
76086;BME280;64791;0.000;0.000;2023-12-22T01:41:45;92203.56;;;6.80;53.17
76086;BME280;64791;0.000;0.000;2023-12-22T01:44:11;92202.59;;;6.68;53.64
76086;BME280;64791;0.000;0.000;2023-12-22T01:46:36;92206.53;;;6.57;53.57
76086;BME280;64791;0.000;0.000;2023-12-22T01:49:02;92200.44;;;6.49;53.86
76086;BME280;64791;0.000;0.000;2023-12-22T01:51:28;92196.13;;;6.39;53.61
76086;BME280;64791;0.000;0.000;2023-12-22T01:53:54;92198.03;;;6.29;53.93
76086;BME280;64791;0.000;0.000;2023-12-22T01:56:20;92186.44;;;6.21;54.29
76086;BME280;64791;0.000;0.000;2023-12-22T01:58:46;92169.28;;;6.20;54.14
76086;BME280;64791;0.000;0.000;2023-12-22T02:01:17;92174.72;;;6.28;54.10
76086;BME280;64791;0.000;0.000;2023-12-22T02:03:43;92179.53;;;6.37;53.70
76086;BME280;64791;0.000;0.000;2023-12-22T02:06:08;92189.13;;;6.45;54.10
76086;BME280;64791;0.000;0.000;2023-12-22T02:08:34;92187.22;;;6.55;53.69
76086;BME280;64791;0.000;0.000;2023-12-22T02:11:00;92183.66;;;6.62;53.77
76086;BME280;64791;0.000;0.000;2023-12-22T02:13:26;92190.34;;;6.69;53.62
76086;BME280;64791;0.000;0.000;2023-12-22T02:16:05;92214.03;;;6.74;53.57
76086;BME280;64791;0.000;0.000;2023-12-22T02:18:38;92194.59;;;6.80;53.00
76086;BME280;64791;0.000;0.000;2023-12-22T02:21:04;92196.97;;;6.83;53.87
76086;BME280;64791;0.000;0.000;2023-12-22T02:23:30;92195.28;;;6.88;53.48
76086;BME280;64791;0.000;0.000;2023-12-22T02:25:57;92203.81;;;6.92;53.57
76086;BME280;64791;0.000;0.000;2023-12-22T02:28:25;92193.16;;;6.96;53.49
76086;BME280;64791;0.000;0.000;2023-12-22T02:31:00;92192.75;;;6.99;53.54
76086;BME280;64791;0.000;0.000;2023-12-22T02:33:28;92201.84;;;7.02;53.15
76086;BME280;64791;0.000;0.000;2023-12-22T02:35:56;92183.81;;;6.99;52.92
76086;BME280;64791;0.000;0.000;2023-12-22T02:38:23;92176.25;;;6.90;53.19
76086;BME280;64791;0.000;0.000;2023-12-22T02:40:49;92176.72;;;6.79;53.81
76086;BME280;64791;0.000;0.000;2023-12-22T02:43:15;92184.00;;;6.66;53.78
76086;BME280;64791;0.000;0.000;2023-12-22T02:45:41;92160.53;;;6.56;54.38
76086;BME280;64791;0.000;0.000;2023-12-22T02:48:07;92166.50;;;6.45;54.10
76086;BME280;64791;0.000;0.000;2023-12-22T02:50:33;92155.47;;;6.35;54.78
76086;BME280;64791;0.000;0.000;2023-12-22T02:52:59;92156.25;;;6.28;54.91
76086;BME280;64791;0.000;0.000;2023-12-22T02:55:24;92156.91;;;6.19;55.19
76086;BME280;64791;0.000;0.000;2023-12-22T02:57:50;92150.59;;;6.09;55.07
76086;BME280;64791;0.000;0.000;2023-12-22T03:00:16;92161.94;;;6.06;55.29
76086;BME280;64791;0.000;0.000;2023-12-22T03:02:42;92164.75;;;5.98;55.33
76086;BME280;64791;0.000;0.000;2023-12-22T03:05:08;92153.63;;;5.96;55.68
76086;BME280;64791;0.000;0.000;2023-12-22T03:07:33;92154.69;;;6.01;55.59
76086;BME280;64791;0.000;0.000;2023-12-22T03:09:59;92151.50;;;6.12;55.36
76086;BME280;64791;0.000;0.000;2023-12-22T03:12:25;92157.78;;;6.22;55.22
76086;BME280;64791;0.000;0.000;2023-12-22T03:14:51;92171.72;;;6.33;55.38
76086;BME280;64791;0.000;0.000;2023-12-22T03:17:17;92159.41;;;6.42;54.96
76086;BME280;64791;0.000;0.000;2023-12-22T03:19:43;92168.28;;;6.50;54.57
76086;BME280;64791;0.000;0.000;2023-12-22T03:22:08;92164.72;;;6.57;54.97
76086;BME280;64791;0.000;0.000;2023-12-22T03:24:34;92161.75;;;6.62;54.88
76086;BME280;64791;0.000;0.000;2023-12-22T03:27:00;92152.00;;;6.69;54.75
76086;BME280;64791;0.000;0.000;2023-12-22T03:29:25;92149.03;;;6.74;54.54
76086;BME280;64791;0.000;0.000;2023-12-22T03:31:51;92136.38;;;6.79;54.65
76086;BME280;64791;0.000;0.000;2023-12-22T03:34:17;92149.06;;;6.84;54.39
76086;BME280;64791;0.000;0.000;2023-12-22T03:36:42;92143.22;;;6.88;54.18
76086;BME280;64791;0.000;0.000;2023-12-22T03:39:08;92137.47;;;6.93;54.59
76086;BME280;64791;0.000;0.000;2023-12-22T03:41:34;92143.09;;;6.95;54.38
76086;BME280;64791;0.000;0.000;2023-12-22T03:44:00;92146.09;;;6.90;54.32
76086;BME280;64791;0.000;0.000;2023-12-22T03:46:26;92141.13;;;6.79;54.58
76086;BME280;64791;0.000;0.000;2023-12-22T03:48:52;92145.09;;;6.68;54.83
76086;BME280;64791;0.000;0.000;2023-12-22T03:51:17;92143.41;;;6.55;55.01
76086;BME280;64791;0.000;0.000;2023-12-22T03:53:43;92139.84;;;6.45;55.17
76086;BME280;64791;0.000;0.000;2023-12-22T03:56:09;92144.50;;;6.35;55.54
76086;BME280;64791;0.000;0.000;2023-12-22T03:58:35;92145.88;;;6.27;55.51
76086;BME280;64791;0.000;0.000;2023-12-22T04:01:01;92143.22;;;6.19;55.72
76086;BME280;64791;0.000;0.000;2023-12-22T04:03:26;92139.13;;;6.11;55.76
76086;BME280;64791;0.000;0.000;2023-12-22T04:05:52;92128.97;;;6.04;56.09
76086;BME280;64791;0.000;0.000;2023-12-22T04:08:18;92142.16;;;5.97;56.08
76086;BME280;64791;0.000;0.000;2023-12-22T04:10:46;92134.72;;;5.90;55.98
76086;BME280;64791;0.000;0.000;2023-12-22T04:13:12;92134.41;;;5.86;56.33
76086;BME280;64791;0.000;0.000;2023-12-22T04:15:37;92138.03;;;5.89;56.38
76086;BME280;64791;0.000;0.000;2023-12-22T04:18:03;92129.91;;;5.98;56.51
76086;BME280;64791;0.000;0.000;2023-12-22T04:20:29;92115.75;;;6.10;55.94
76086;BME280;64791;0.000;0.000;2023-12-22T04:22:54;92126.22;;;6.21;55.93
76086;BME280;64791;0.000;0.000;2023-12-22T04:25:20;92125.19;;;6.33;55.73
76086;BME280;64791;0.000;0.000;2023-12-22T04:27:47;92128.72;;;6.43;55.72
76086;BME280;64791;0.000;0.000;2023-12-22T04:30:13;92125.34;;;6.52;55.85
76086;BME280;64791;0.000;0.000;2023-12-22T04:32:38;92125.28;;;6.60;55.77
76086;BME280;64791;0.000;0.000;2023-12-22T04:35:04;92125.91;;;6.68;55.67
76086;BME280;64791;0.000;0.000;2023-12-22T04:37:30;92129.84;;;6.74;55.66
76086;BME280;64791;0.000;0.000;2023-12-22T04:39:56;92125.56;;;6.81;54.96
76086;BME280;64791;0.000;0.000;2023-12-22T04:42:23;92133.94;;;6.83;54.91
76086;BME280;64791;0.000;0.000;2023-12-22T04:44:51;92128.16;;;6.79;55.08
76086;BME280;64791;0.000;0.000;2023-12-22T04:47:17;92124.75;;;6.71;55.13
76086;BME280;64791;0.000;0.000;2023-12-22T04:49:43;92125.28;;;6.60;55.57
76086;BME280;64791;0.000;0.000;2023-12-22T04:52:09;92129.22;;;6.49;55.84
76086;BME280;64791;0.000;0.000;2023-12-22T04:54:35;92122.78;;;6.37;56.18
76086;BME280;64791;0.000;0.000;2023-12-22T04:57:01;92124.31;;;6.31;56.30
76086;BME280;64791;0.000;0.000;2023-12-22T04:59:27;92138.47;;;6.20;56.32
76086;BME280;64791;0.000;0.000;2023-12-22T05:01:53;92122.69;;;6.11;56.55
76086;BME280;64791;0.000;0.000;2023-12-22T05:04:19;92112.69;;;6.06;56.63
76086;BME280;64791;0.000;0.000;2023-12-22T05:06:45;92128.78;;;6.02;57.11
76086;BME280;64791;0.000;0.000;2023-12-22T05:09:11;92121.22;;;5.92;56.75
76086;BME280;64791;0.000;0.000;2023-12-22T05:11:37;92111.94;;;5.88;57.14
76086;BME280;64791;0.000;0.000;2023-12-22T05:14:03;92111.47;;;5.82;57.16
76086;BME280;64791;0.000;0.000;2023-12-22T05:16:29;92117.72;;;5.75;57.51
76086;BME280;64791;0.000;0.000;2023-12-22T05:18:57;92106.28;;;5.69;57.60
76086;BME280;64791;0.000;0.000;2023-12-22T05:21:23;92101.38;;;5.67;58.00
76086;BME280;64791;0.000;0.000;2023-12-22T05:23:49;92088.03;;;5.71;57.39
76086;BME280;64791;0.000;0.000;2023-12-22T05:26:19;92099.94;;;5.83;57.33
76086;BME280;64791;0.000;0.000;2023-12-22T05:28:44;92111.16;;;5.95;57.03
76086;BME280;64791;0.000;0.000;2023-12-22T05:31:10;92106.66;;;6.07;56.63
76086;BME280;64791;0.000;0.000;2023-12-22T05:33:36;92110.22;;;6.17;56.69
76086;BME280;64791;0.000;0.000;2023-12-22T05:36:01;92115.78;;;6.27;56.84
76086;BME280;64791;0.000;0.000;2023-12-22T05:38:28;92123.50;;;6.38;57.00
76086;BME280;64791;0.000;0.000;2023-12-22T05:40:54;92129.63;;;6.46;56.08
76086;BME280;64791;0.000;0.000;2023-12-22T05:43:19;92136.47;;;6.54;56.34
76086;BME280;64791;0.000;0.000;2023-12-22T05:45:45;92134.94;;;6.61;56.13
76086;BME280;64791;0.000;0.000;2023-12-22T05:48:10;92133.97;;;6.66;56.22
76086;BME280;64791;0.000;0.000;2023-12-22T05:50:36;92137.19;;;6.72;55.94
76086;BME280;64791;0.000;0.000;2023-12-22T05:53:01;92132.16;;;6.78;56.02
76086;BME280;64791;0.000;0.000;2023-12-22T05:55:27;92131.06;;;6.81;55.92
76086;BME280;64791;0.000;0.000;2023-12-22T05:57:53;92125.25;;;6.77;55.73
76086;BME280;64791;0.000;0.000;2023-12-22T06:00:19;92129.38;;;6.68;55.76
76086;BME280;64791;0.000;0.000;2023-12-22T06:02:45;92127.13;;;6.57;56.02
76086;BME280;64791;0.000;0.000;2023-12-22T06:05:10;92131.78;;;6.47;56.42
76086;BME280;64791;0.000;0.000;2023-12-22T06:07:36;92125.50;;;6.37;56.62
76086;BME280;64791;0.000;0.000;2023-12-22T06:10:02;92125.44;;;6.28;56.79
76086;BME280;64791;0.000;0.000;2023-12-22T06:12:28;92115.13;;;6.19;57.25
76086;BME280;64791;0.000;0.000;2023-12-22T06:14:53;92113.91;;;6.12;57.43
76086;BME280;64791;0.000;0.000;2023-12-22T06:17:19;92112.69;;;6.06;57.56
76086;BME280;64791;0.000;0.000;2023-12-22T06:19:45;92121.84;;;6.01;57.82
76086;BME280;64791;0.000;0.000;2023-12-22T06:22:11;92141.97;;;5.95;57.67
76086;BME280;64791;0.000;0.000;2023-12-22T06:24:36;92134.72;;;5.90;57.99
76086;BME280;64791;0.000;0.000;2023-12-22T06:27:02;92145.91;;;5.85;58.02
76086;BME280;64791;0.000;0.000;2023-12-22T06:29:28;92141.53;;;5.82;58.04
76086;BME280;64791;0.000;0.000;2023-12-22T06:31:56;92138.47;;;5.78;57.97
76086;BME280;64791;0.000;0.000;2023-12-22T06:34:22;92143.63;;;5.74;58.13
76086;BME280;64791;0.000;0.000;2023-12-22T06:36:47;92137.09;;;5.69;58.14
76086;BME280;64791;0.000;0.000;2023-12-22T06:39:14;92139.66;;;5.67;58.24
76086;BME280;64791;0.000;0.000;2023-12-22T06:41:41;92133.13;;;5.63;58.41
76086;BME280;64791;0.000;0.000;2023-12-22T06:44:07;92132.97;;;5.61;58.73
76086;BME280;64791;0.000;0.000;2023-12-22T06:46:33;92130.59;;;5.57;58.53
76086;BME280;64791;0.000;0.000;2023-12-22T06:48:59;92135.91;;;5.55;58.64
76086;BME280;64791;0.000;0.000;2023-12-22T06:51:25;92133.00;;;5.53;58.70
76086;BME280;64791;0.000;0.000;2023-12-22T06:53:51;92140.50;;;5.53;58.92
76086;BME280;64791;0.000;0.000;2023-12-22T06:56:23;92137.41;;;5.49;59.00
76086;BME280;64791;0.000;0.000;2023-12-22T06:58:50;92150.53;;;5.50;59.27
76086;BME280;64791;0.000;0.000;2023-12-22T07:03:48;92153.31;;;5.43;59.24
76086;BME280;64791;0.000;0.000;2023-12-22T07:06:20;92152.97;;;5.39;59.37
76086;BME280;64791;0.000;0.000;2023-12-22T07:11:21;92162.47;;;5.38;59.74
76086;BME280;64791;0.000;0.000;2023-12-22T07:13:47;92161.19;;;5.39;59.52
76086;BME280;64791;0.000;0.000;2023-12-22T07:16:14;92162.09;;;5.41;59.54
76086;BME280;64791;0.000;0.000;2023-12-22T07:18:40;92159.75;;;5.38;59.51
76086;BME280;64791;0.000;0.000;2023-12-22T07:21:06;92168.66;;;5.38;59.63
76086;BME280;64791;0.000;0.000;2023-12-22T07:23:32;92161.75;;;5.37;59.69
76086;BME280;64791;0.000;0.000;2023-12-22T07:25:58;92165.22;;;5.38;59.60
76086;BME280;64791;0.000;0.000;2023-12-22T07:28:24;92161.56;;;5.35;59.94
76086;BME280;64791;0.000;0.000;2023-12-22T07:30:50;92158.34;;;5.29;59.77
76086;BME280;64791;0.000;0.000;2023-12-22T07:33:16;92167.25;;;5.30;60.09
76086;BME280;64791;0.000;0.000;2023-12-22T07:35:42;92162.34;;;5.28;60.17
76086;BME280;64791;0.000;0.000;2023-12-22T07:38:08;92158.88;;;5.28;60.20
76086;BME280;64791;0.000;0.000;2023-12-22T07:40:34;92157.44;;;5.27;60.30
76086;BME280;64791;0.000;0.000;2023-12-22T07:43:00;92161.06;;;5.29;60.41
76086;BME280;64791;0.000;0.000;2023-12-22T07:45:26;92162.84;;;5.34;60.12
76086;BME280;64791;0.000;0.000;2023-12-22T07:47:53;92166.66;;;5.39;60.16
76086;BME280;64791;0.000;0.000;2023-12-22T07:50:19;92180.31;;;5.39;60.16
76086;BME280;64791;0.000;0.000;2023-12-22T07:52:46;92175.41;;;5.37;60.22
76086;BME280;64791;0.000;0.000;2023-12-22T07:55:12;92183.94;;;5.41;60.32
76086;BME280;64791;0.000;0.000;2023-12-22T07:57:37;92183.38;;;5.43;60.54
76086;BME280;64791;0.000;0.000;2023-12-22T08:00:06;92184.69;;;5.42;60.43
76086;BME280;64791;0.000;0.000;2023-12-22T08:02:37;92180.88;;;5.37;60.70
76086;BME280;64791;0.000;0.000;2023-12-22T08:05:03;92185.94;;;5.41;60.83
76086;BME280;64791;0.000;0.000;2023-12-22T08:07:29;92188.84;;;5.43;60.27
76086;BME280;64791;0.000;0.000;2023-12-22T08:09:55;92186.28;;;5.45;60.25
76086;BME280;64791;0.000;0.000;2023-12-22T08:12:21;92195.00;;;5.51;60.44
76086;BME280;64791;0.000;0.000;2023-12-22T08:14:47;92191.31;;;5.56;60.63
76086;BME280;64791;0.000;0.000;2023-12-22T08:17:12;92198.59;;;5.61;60.83
76086;BME280;64791;0.000;0.000;2023-12-22T08:19:38;92200.94;;;5.64;60.71
76086;BME280;64791;0.000;0.000;2023-12-22T08:22:04;92191.22;;;5.71;60.63
76086;BME280;64791;0.000;0.000;2023-12-22T08:24:30;92200.66;;;5.77;60.66
76086;BME280;64791;0.000;0.000;2023-12-22T08:26:57;92205.88;;;5.83;60.51
76086;BME280;64791;0.000;0.000;2023-12-22T08:29:22;92205.69;;;5.88;60.18
76086;BME280;64791;0.000;0.000;2023-12-22T08:31:49;92211.88;;;5.89;60.18
76086;BME280;64791;0.000;0.000;2023-12-22T08:34:15;92222.81;;;5.89;60.02
76086;BME280;64791;0.000;0.000;2023-12-22T08:36:40;92220.44;;;5.93;59.85
76086;BME280;64791;0.000;0.000;2023-12-22T08:39:06;92220.44;;;5.93;60.01
76086;BME280;64791;0.000;0.000;2023-12-22T08:41:32;92216.22;;;5.92;59.82
76086;BME280;64791;0.000;0.000;2023-12-22T08:44:02;92219.94;;;5.87;60.40
76086;BME280;64791;0.000;0.000;2023-12-22T08:46:27;92228.50;;;5.83;60.61
76086;BME280;64791;0.000;0.000;2023-12-22T08:48:53;92225.09;;;5.75;60.68
76086;BME280;64791;0.000;0.000;2023-12-22T08:51:19;92228.06;;;5.70;61.07
76086;BME280;64791;0.000;0.000;2023-12-22T08:53:47;92226.03;;;5.70;61.26
76086;BME280;64791;0.000;0.000;2023-12-22T08:56:15;92220.22;;;5.66;61.45
76086;BME280;64791;0.000;0.000;2023-12-22T08:58:42;92220.22;;;5.66;61.68
76086;BME280;64791;0.000;0.000;2023-12-22T09:01:14;92211.88;;;5.64;61.26
76086;BME280;64791;0.000;0.000;2023-12-22T09:03:40;92214.41;;;5.70;61.43
76086;BME280;64791;0.000;0.000;2023-12-22T09:06:13;92210.38;;;5.71;61.45
76086;BME280;64791;0.000;0.000;2023-12-22T09:08:39;92215.78;;;5.78;61.36
76086;BME280;64791;0.000;0.000;2023-12-22T09:11:05;92222.50;;;5.85;61.35
76086;BME280;64791;0.000;0.000;2023-12-22T09:13:31;92223.19;;;5.85;61.43
76086;BME280;64791;0.000;0.000;2023-12-22T09:15:57;92231.75;;;5.89;61.07
76086;BME280;64791;0.000;0.000;2023-12-22T09:18:23;92232.97;;;5.96;60.70
76086;BME280;64791;0.000;0.000;2023-12-22T09:20:49;92237.91;;;5.97;60.68
76086;BME280;64791;0.000;0.000;2023-12-22T09:23:15;92236.44;;;5.96;60.58
76086;BME280;64791;0.000;0.000;2023-12-22T09:25:41;92246.66;;;5.96;60.98
76086;BME280;64791;0.000;0.000;2023-12-22T09:28:07;92240.31;;;5.93;60.71
76086;BME280;64791;0.000;0.000;2023-12-22T09:30:33;92243.59;;;5.92;60.77
76086;BME280;64791;0.000;0.000;2023-12-22T09:32:59;92257.50;;;5.86;60.81
76086;BME280;64791;0.000;0.000;2023-12-22T09:35:24;92249.13;;;5.84;61.00
76086;BME280;64791;0.000;0.000;2023-12-22T09:37:52;92259.72;;;5.80;61.68
76086;BME280;64791;0.000;0.000;2023-12-22T09:40:18;92256.09;;;5.78;61.58
76086;BME280;64791;0.000;0.000;2023-12-22T09:42:44;92246.91;;;5.83;61.42
76086;BME280;64791;0.000;0.000;2023-12-22T09:45:11;92251.78;;;5.92;61.13
76086;BME280;64791;0.000;0.000;2023-12-22T09:47:39;92244.81;;;5.98;60.93
76086;BME280;64791;0.000;0.000;2023-12-22T09:50:06;92235.72;;;5.96;60.73
76086;BME280;64791;0.000;0.000;2023-12-22T09:52:33;92217.44;;;5.98;61.07
76086;BME280;64791;0.000;0.000;2023-12-22T09:55:00;92214.28;;;6.10;60.81
76086;BME280;64791;0.000;0.000;2023-12-22T09:57:26;92216.38;;;6.19;60.66
76086;BME280;64791;0.000;0.000;2023-12-22T09:59:53;92221.41;;;6.30;60.13
76086;BME280;64791;0.000;0.000;2023-12-22T10:02:19;92226.44;;;6.41;60.18
76086;BME280;64791;0.000;0.000;2023-12-22T10:04:45;92231.97;;;6.50;59.80
76086;BME280;64791;0.000;0.000;2023-12-22T10:07:11;92227.72;;;6.57;59.70
76086;BME280;64791;0.000;0.000;2023-12-22T10:09:39;92213.06;;;6.62;59.80
76086;BME280;64791;0.000;0.000;2023-12-22T10:12:06;92185.44;;;6.67;59.48
76086;BME280;64791;0.000;0.000;2023-12-22T10:14:32;92179.00;;;6.72;59.53
76086;BME280;64791;0.000;0.000;2023-12-22T10:16:59;92167.22;;;6.80;59.39
76086;BME280;64791;0.000;0.000;2023-12-22T10:19:24;92167.28;;;6.89;59.34
76086;BME280;64791;0.000;0.000;2023-12-22T10:21:50;92171.38;;;6.98;59.21
76086;BME280;64791;0.000;0.000;2023-12-22T10:27:00;92179.44;;;7.13;59.00
76086;BME280;64791;0.000;0.000;2023-12-22T10:29:26;92175.31;;;7.21;58.90
76086;BME280;64791;0.000;0.000;2023-12-22T10:31:52;92172.09;;;7.32;59.01
76086;BME280;64791;0.000;0.000;2023-12-22T10:34:18;92159.13;;;7.42;58.43
76086;BME280;64791;0.000;0.000;2023-12-22T10:36:44;92152.97;;;7.52;58.14
76086;BME280;64791;0.000;0.000;2023-12-22T10:39:10;92156.34;;;7.60;58.46
76086;BME280;64791;0.000;0.000;2023-12-22T10:41:36;92158.81;;;7.65;58.49
76086;BME280;64791;0.000;0.000;2023-12-22T10:44:02;92162.19;;;7.73;58.49
76086;BME280;64791;0.000;0.000;2023-12-22T10:46:30;92153.66;;;7.79;57.71
76086;BME280;64791;0.000;0.000;2023-12-22T10:48:56;92152.84;;;7.86;57.81
76086;BME280;64791;0.000;0.000;2023-12-22T10:51:21;92147.53;;;7.97;57.62
76086;BME280;64791;0.000;0.000;2023-12-22T10:53:48;92135.72;;;8.14;57.30
76086;BME280;64791;0.000;0.000;2023-12-22T10:56:13;92141.97;;;8.34;57.08
76086;BME280;64791;0.000;0.000;2023-12-22T10:58:39;92127.53;;;8.52;56.26
76086;BME280;64791;0.000;0.000;2023-12-22T11:01:06;92118.72;;;8.63;56.19
76086;BME280;64791;0.000;0.000;2023-12-22T11:03:32;92104.84;;;8.80;55.99
76086;BME280;64791;0.000;0.000;2023-12-22T11:05:59;92106.41;;;9.12;56.00
76086;BME280;64791;0.000;0.000;2023-12-22T11:08:29;92111.81;;;9.50;55.27
76086;BME280;64791;0.000;0.000;2023-12-22T11:10:57;92105.03;;;9.82;54.94
76086;BME280;64791;0.000;0.000;2023-12-22T11:13:24;92096.16;;;10.14;54.11
76086;BME280;64791;0.000;0.000;2023-12-22T11:15:49;92098.72;;;10.22;53.84
76086;BME280;64791;0.000;0.000;2023-12-22T11:18:17;92105.09;;;10.45;54.10
76086;BME280;64791;0.000;0.000;2023-12-22T11:20:43;92100.47;;;10.69;53.05
76086;BME280;64791;0.000;0.000;2023-12-22T11:23:10;92087.34;;;10.91;52.70
76086;BME280;64791;0.000;0.000;2023-12-22T11:25:37;92080.09;;;11.07;52.67
76086;BME280;64791;0.000;0.000;2023-12-22T11:28:03;92082.63;;;11.14;52.58
76086;BME280;64791;0.000;0.000;2023-12-22T11:30:31;92069.81;;;11.19;52.64
76086;BME280;64791;0.000;0.000;2023-12-22T11:32:57;92072.81;;;11.23;52.18
76086;BME280;64791;0.000;0.000;2023-12-22T11:35:23;92079.91;;;11.26;52.54
76086;BME280;64791;0.000;0.000;2023-12-22T11:37:49;92087.13;;;11.31;52.68
76086;BME280;64791;0.000;0.000;2023-12-22T11:40:15;92095.63;;;11.35;52.60
76086;BME280;64791;0.000;0.000;2023-12-22T11:42:43;92105.50;;;11.38;52.22
76086;BME280;64791;0.000;0.000;2023-12-22T11:45:11;92108.25;;;11.38;52.60
76086;BME280;64791;0.000;0.000;2023-12-22T11:47:45;92110.16;;;11.36;52.31
76086;BME280;64791;0.000;0.000;2023-12-22T11:50:11;92120.97;;;11.31;52.63
76086;BME280;64791;0.000;0.000;2023-12-22T11:52:37;92122.13;;;11.28;52.44
76086;BME280;64791;0.000;0.000;2023-12-22T11:55:04;92128.63;;;11.21;52.48
76086;BME280;64791;0.000;0.000;2023-12-22T11:57:30;92130.84;;;11.13;52.53
76086;BME280;64791;0.000;0.000;2023-12-22T11:59:56;92138.38;;;11.01;53.02
76086;BME280;64791;0.000;0.000;2023-12-22T12:02:22;92126.22;;;10.95;53.06
76086;BME280;64791;0.000;0.000;2023-12-22T12:04:53;92121.06;;;10.89;53.25
76086;BME280;64791;0.000;0.000;2023-12-22T12:10:07;92118.84;;;10.76;53.83
76086;BME280;64791;0.000;0.000;2023-12-22T12:12:33;92131.63;;;10.72;53.67
76086;BME280;64791;0.000;0.000;2023-12-22T12:15:06;92135.44;;;10.67;53.70
76086;BME280;64791;0.000;0.000;2023-12-22T12:17:32;92142.00;;;10.62;53.96
76086;BME280;64791;0.000;0.000;2023-12-22T12:19:58;92142.44;;;10.58;53.90
76086;BME280;64791;0.000;0.000;2023-12-22T12:22:25;92142.31;;;10.56;54.13
76086;BME280;64791;0.000;0.000;2023-12-22T12:24:51;92141.44;;;10.53;54.39
76086;BME280;64791;0.000;0.000;2023-12-22T12:27:20;92144.94;;;10.54;54.39
76086;BME280;64791;0.000;0.000;2023-12-22T12:29:46;92139.28;;;10.52;54.10
76086;BME280;64791;0.000;0.000;2023-12-22T12:32:13;92132.19;;;10.49;54.47
76086;BME280;64791;0.000;0.000;2023-12-22T12:34:42;92128.00;;;10.48;54.73
76086;BME280;64791;0.000;0.000;2023-12-22T12:37:07;92124.25;;;10.43;54.39
76086;BME280;64791;0.000;0.000;2023-12-22T12:39:34;92111.66;;;10.40;54.87
76086;BME280;64791;0.000;0.000;2023-12-22T12:42:00;92116.91;;;10.36;54.92
76086;BME280;64791;0.000;0.000;2023-12-22T12:44:28;92113.03;;;10.30;55.01
76086;BME280;64791;0.000;0.000;2023-12-22T12:46:54;92110.59;;;10.24;55.10
76086;BME280;64791;0.000;0.000;2023-12-22T12:49:20;92103.38;;;10.19;54.86
76086;BME280;64791;0.000;0.000;2023-12-22T12:51:47;92105.13;;;10.15;55.22
76086;BME280;64791;0.000;0.000;2023-12-22T12:54:13;92104.75;;;10.09;55.03
76086;BME280;64791;0.000;0.000;2023-12-22T12:56:39;92104.47;;;10.05;55.07
76086;BME280;64791;0.000;0.000;2023-12-22T12:59:08;92106.97;;;10.01;55.46
76086;BME280;64791;0.000;0.000;2023-12-22T13:01:43;92103.81;;;9.95;55.07
76086;BME280;64791;0.000;0.000;2023-12-22T13:04:10;92103.97;;;9.87;55.57
76086;BME280;64791;0.000;0.000;2023-12-22T13:06:42;92117.34;;;9.81;55.19
76086;BME280;64791;0.000;0.000;2023-12-22T13:09:08;92123.88;;;9.76;55.97
76086;BME280;64791;0.000;0.000;2023-12-22T13:11:34;92123.59;;;9.72;55.74
76086;BME280;64791;0.000;0.000;2023-12-22T13:14:00;92134.63;;;9.72;55.98
76086;BME280;64791;0.000;0.000;2023-12-22T13:16:26;92145.22;;;9.66;55.87
76086;BME280;64791;0.000;0.000;2023-12-22T13:18:55;92142.06;;;9.60;55.58
76086;BME280;64791;0.000;0.000;2023-12-22T13:21:21;92139.75;;;9.56;56.10
76086;BME280;64791;0.000;0.000;2023-12-22T13:23:47;92124.00;;;9.47;56.26
76086;BME280;64791;0.000;0.000;2023-12-22T13:26:23;92089.84;;;9.41;56.29